Time;durP1;ratioP1;P1;durP2;ratioP2;P2;SDS_P1;SDS_P2;PMS_P1;PMS_P2;Temp;Humidity;BMP_temperature;BMP_pressure;BME280_temperature;BME280_humidity;BME280_pressure;Samples;Min_cycle;Max_cycle;Signal;HPM_P1;HPM_P2
2022/03/06 00:01:14;;;;;;;18.47;8.70;;;;;;;-1.92;63.73;98862.94;5093157;28;20187;-61
2022/03/06 00:03:41;;;;;;;20.80;10.35;;;;;;;-2.00;63.08;98862.41;5092311;28;20901;-60
2022/03/06 00:06:08;;;;;;;23.13;10.10;;;;;;;-2.04;63.34;98864.25;5092183;28;20181;-60
2022/03/06 00:08:35;;;;;;;21.03;9.40;;;;;;;-2.12;63.54;98867.16;5092830;28;20193;-60
2022/03/06 00:11:02;;;;;;;18.83;9.70;;;;;;;-2.21;64.95;98865.00;5092795;28;20205;-60
2022/03/06 00:13:29;;;;;;;22.77;9.47;;;;;;;-2.17;64.09;98869.06;5092418;28;20709;-60
2022/03/06 00:15:56;;;;;;;21.10;8.73;;;;;;;-2.20;65.03;98863.28;5092348;28;20190;-60
2022/03/06 00:18:24;;;;;;;21.13;9.47;;;;;;;-2.24;64.96;98865.97;5092429;28;20595;-60
2022/03/06 00:20:51;;;;;;;23.07;9.97;;;;;;;-2.23;64.80;98866.78;5092545;28;20193;-61
2022/03/06 00:23:18;;;;;;;19.90;8.57;;;;;;;-2.18;65.50;98862.31;5102131;28;20220;-60
2022/03/06 00:25:44;;;;;;;22.23;9.33;;;;;;;-2.17;65.57;98860.59;5092132;28;20193;-60
2022/03/06 00:28:11;;;;;;;22.00;9.57;;;;;;;-2.22;64.71;98863.31;5092600;28;20232;-60
2022/03/06 00:30:41;;;;;;;20.00;9.50;;;;;;;-2.25;64.75;98858.34;5091178;28;20210;-60
2022/03/06 00:33:08;;;;;;;18.20;8.27;;;;;;;-2.27;64.32;98857.56;5092174;28;20263;-60
2022/03/06 00:35:36;;;;;;;19.73;9.13;;;;;;;-2.33;63.97;98856.13;5091785;28;20178;-60
2022/03/06 00:38:04;;;;;;;21.70;9.80;;;;;;;-2.26;63.84;98854.97;5092415;28;20265;-60
2022/03/06 00:40:33;;;;;;;20.27;9.80;;;;;;;-2.32;64.65;98857.78;5091672;28;20178;-60
2022/03/06 00:43:00;;;;;;;18.10;8.53;;;;;;;-2.40;64.19;98857.25;5091548;28;20218;-57
2022/03/06 00:45:27;;;;;;;17.83;8.87;;;;;;;-2.34;64.72;98859.56;5091729;28;20182;-63
2022/03/06 00:47:54;;;;;;;21.00;9.43;;;;;;;-2.38;63.89;98852.91;5092028;28;20193;-59
2022/03/06 00:50:21;;;;;;;22.57;10.03;;;;;;;-2.39;64.09;98848.69;5092069;28;20218;-62
2022/03/06 00:52:49;;;;;;;23.37;9.83;;;;;;;-2.41;63.64;98851.31;5091622;28;20214;-62
2022/03/06 00:55:16;;;;;;;21.20;9.87;;;;;;;-2.46;64.66;98845.53;5091216;28;20203;-62
2022/03/06 00:57:42;;;;;;;21.07;9.13;;;;;;;-2.54;64.71;98853.53;5092044;28;20664;-62
2022/03/06 01:00:10;;;;;;;20.87;9.07;;;;;;;-2.54;64.97;98855.25;5091919;28;20190;-62
2022/03/06 01:02:37;;;;;;;19.87;9.13;;;;;;;-2.56;64.83;98855.31;5091287;28;20207;-62
2022/03/06 01:05:05;;;;;;;23.23;10.17;;;;;;;-2.51;64.81;98860.22;5091282;28;20189;-62
2022/03/06 01:07:32;;;;;;;21.73;10.33;;;;;;;-2.49;64.68;98852.53;5091636;28;20204;-62
2022/03/06 01:10:00;;;;;;;18.93;9.37;;;;;;;-2.49;65.25;98855.88;5091596;28;20256;-63
2022/03/06 01:12:27;;;;;;;20.93;9.23;;;;;;;-2.47;65.00;98854.09;5091268;28;20202;-62
2022/03/06 01:14:54;;;;;;;24.83;9.73;;;;;;;-2.48;65.24;98860.13;5091186;28;20291;-62
2022/03/06 01:17:21;;;;;;;21.47;10.20;;;;;;;-2.47;65.22;98856.66;5091447;28;20657;-62
2022/03/06 01:19:49;;;;;;;21.20;9.83;;;;;;;-2.37;65.61;98846.91;5091435;28;20186;-62
2022/03/06 01:22:16;;;;;;;21.77;9.70;;;;;;;-2.30;64.33;98860.25;5092595;28;20201;-62
2022/03/06 01:24:43;;;;;;;21.00;9.93;;;;;;;-2.34;64.61;98862.13;5098788;28;20269;-62
2022/03/06 01:27:11;;;;;;;19.80;9.60;;;;;;;-2.38;63.96;98869.06;5091518;28;20189;-62
2022/03/06 01:29:38;;;;;;;22.00;9.87;;;;;;;-2.42;63.98;98864.16;5091320;28;20198;-62
2022/03/06 01:32:06;;;;;;;21.93;9.93;;;;;;;-2.42;64.69;98859.03;5090835;28;20214;-62
2022/03/06 01:34:32;;;;;;;23.43;9.67;;;;;;;-2.36;65.66;98861.34;5090463;28;20566;-62
2022/03/06 01:36:59;;;;;;;21.70;9.97;;;;;;;-2.34;66.07;98862.13;5091457;28;20272;-62
2022/03/06 01:39:26;;;;;;;22.60;9.83;;;;;;;-2.42;65.38;98864.16;5091038;28;20701;-62
2022/03/06 01:41:53;;;;;;;19.67;9.43;;;;;;;-2.44;66.52;98861.66;5090872;28;20265;-62
2022/03/06 01:44:21;;;;;;;18.37;9.00;;;;;;;-2.53;66.87;98862.88;5090618;28;20189;-63
2022/03/06 01:46:48;;;;;;;20.27;9.13;;;;;;;-2.41;65.91;98863.25;5090708;28;20185;-62
2022/03/06 01:49:15;;;;;;;20.17;9.30;;;;;;;-2.46;65.76;98868.56;5091237;28;20265;-62
2022/03/06 01:51:42;;;;;;;21.50;9.27;;;;;;;-2.48;66.39;98860.13;5089873;28;20214;-62
2022/03/06 01:54:10;;;;;;;19.40;9.00;;;;;;;-2.39;66.47;98861.47;5088954;28;20255;-62
2022/03/06 01:56:37;;;;;;;21.00;8.87;;;;;;;-2.35;65.61;98864.72;5091081;28;20189;-62
2022/03/06 01:59:04;;;;;;;20.53;9.43;;;;;;;-2.31;66.14;98856.88;5089482;28;20193;-62
2022/03/06 02:01:33;;;;;;;21.30;9.47;;;;;;;-2.36;66.47;98853.69;5090895;28;20247;-62
2022/03/06 02:04:00;;;;;;;22.35;11.00;;;;;;;-2.39;66.17;98857.19;5089772;28;20494;-62
2022/03/06 02:06:27;;;;;;;22.07;9.57;;;;;;;-2.47;65.46;98854.09;5090493;28;20617;-62
2022/03/06 02:08:54;;;;;;;20.93;9.77;;;;;;;-2.42;66.28;98859.03;5090732;28;20586;-62
2022/03/06 02:11:22;;;;;;;20.43;9.40;;;;;;;-2.23;65.41;98854.84;5090492;28;20260;-62
2022/03/06 02:13:48;;;;;;;25.20;10.03;;;;;;;-2.27;65.65;98855.84;5090432;28;20198;-62
2022/03/06 02:16:15;;;;;;;21.57;9.67;;;;;;;-2.30;65.70;98855.13;5090106;28;20696;-62
2022/03/06 02:18:43;;;;;;;19.43;9.37;;;;;;;-2.29;66.88;98852.53;5090588;28;20200;-61
2022/03/06 02:21:13;;;;;;;19.57;9.03;;;;;;;-2.37;66.17;98852.03;5090344;28;20179;-61
2022/03/06 02:23:41;;;;;;;22.77;9.43;;;;;;;-2.28;66.19;98848.22;5094418;28;20209;-61
2022/03/06 02:26:09;;;;;;;22.90;9.87;;;;;;;-2.26;66.49;98847.28;5094495;28;20205;-60
2022/03/06 02:28:36;;;;;;;19.77;9.10;;;;;;;-2.26;66.04;98854.97;5090599;28;20205;-60
2022/03/06 02:31:03;;;;;;;23.37;10.00;;;;;;;-2.38;66.43;98848.63;5090417;28;20202;-61
2022/03/06 02:33:31;;;;;;;26.20;10.07;;;;;;;-2.36;67.53;98851.13;5089993;28;20214;-61
2022/03/06 02:35:58;;;;;;;20.17;9.77;;;;;;;-2.41;67.46;98850.47;5089345;28;20220;-61
2022/03/06 02:38:26;;;;;;;21.60;9.37;;;;;;;-2.49;66.92;98848.22;5090247;28;20190;-61
2022/03/06 02:40:53;;;;;;;22.07;10.33;;;;;;;-2.49;66.83;98855.88;5090361;28;20181;-61
2022/03/06 02:43:21;;;;;;;21.53;9.57;;;;;;;-2.45;67.60;98849.75;5090100;28;20213;-61
2022/03/06 02:45:48;;;;;;;22.17;9.53;;;;;;;-2.43;67.48;98847.97;5089627;28;20214;-61
2022/03/06 02:48:15;;;;;;;21.07;9.93;;;;;;;-2.50;67.52;98850.84;5089837;28;20723;-61
2022/03/06 02:50:41;;;;;;;20.00;10.10;;;;;;;-2.52;67.04;98851.75;5090397;28;20202;-60
2022/03/06 02:53:10;;;;;;;24.30;10.13;;;;;;;-2.50;67.95;98844.00;5089468;28;20225;-61
2022/03/06 02:55:40;;;;;;;24.13;9.77;;;;;;;-2.33;67.28;98848.44;5089821;28;20194;-61
2022/03/06 02:58:07;;;;;;;23.60;10.67;;;;;;;-2.40;67.51;98844.47;5090377;28;20214;-61
2022/03/06 03:00:33;;;;;;;23.47;10.57;;;;;;;-2.49;67.67;98848.22;5089667;28;20205;-61
2022/03/06 03:03:00;;;;;;;25.00;10.00;;;;;;;-2.52;67.60;98851.75;5091517;28;20209;-61
2022/03/06 03:05:27;;;;;;;21.17;9.83;;;;;;;-2.53;67.92;98846.69;5099362;28;20189;-59
2022/03/06 03:07:54;;;;;;;21.50;9.97;;;;;;;-2.48;67.95;98844.78;5112232;28;20192;-60
2022/03/06 03:10:25;;;;;;;24.00;9.93;;;;;;;-2.56;67.84;98852.75;5113722;28;20182;-60
2022/03/06 03:12:54;;;;;;;23.13;10.30;;;;;;;-2.57;68.53;98850.25;5113454;28;20292;-60
2022/03/06 03:15:21;;;;;;;20.53;9.60;;;;;;;-2.65;67.79;98852.31;5114028;28;20192;-60
2022/03/06 03:17:48;;;;;;;25.63;10.33;;;;;;;-2.59;68.69;98857.16;5114364;28;20182;-60
2022/03/06 03:20:15;;;;;;;23.60;9.70;;;;;;;-2.66;68.73;98856.59;5114645;28;20178;-60
2022/03/06 03:22:44;;;;;;;24.47;10.13;;;;;;;-2.55;69.22;98851.88;5114049;28;20254;-60
2022/03/06 03:25:11;;;;;;;21.67;9.90;;;;;;;-2.54;68.44;98857.81;5095716;28;20266;-60
2022/03/06 03:27:39;;;;;;;25.40;10.10;;;;;;;-2.52;67.75;98859.41;5114323;28;20187;-60
2022/03/06 03:30:09;;;;;;;20.30;9.60;;;;;;;-2.52;68.02;98866.25;5114299;28;20175;-60
2022/03/06 03:32:36;;;;;;;20.80;9.67;;;;;;;-2.65;68.17;98857.44;5113971;28;20212;-60
2022/03/06 03:35:04;;;;;;;21.27;9.43;;;;;;;-2.52;69.28;98863.69;5113939;28;20185;-60
2022/03/06 03:37:31;;;;;;;24.33;10.40;;;;;;;-2.60;69.47;98866.56;5114017;28;20185;-60
2022/03/06 03:39:58;;;;;;;24.03;9.97;;;;;;;-2.70;70.75;98860.16;5114155;28;20185;-60
2022/03/06 03:42:25;;;;;;;26.93;10.17;;;;;;;-2.60;69.23;98856.34;5095588;28;20638;-60
2022/03/06 03:44:51;;;;;;;26.70;10.27;;;;;;;-2.66;69.84;98864.25;5113541;28;20186;-60
2022/03/06 03:47:20;;;;;;;23.73;11.57;;;;;;;-2.70;69.71;98862.72;5113967;28;20199;-59
2022/03/06 03:49:47;;;;;;;24.17;10.53;;;;;;;-2.65;69.74;98857.44;5114047;28;20206;-60
2022/03/06 03:52:14;;;;;;;22.03;10.27;;;;;;;-2.46;70.97;98868.56;5109419;28;20217;-60
2022/03/06 03:54:41;;;;;;;24.03;10.30;;;;;;;-2.57;71.01;98871.56;5096479;28;20224;-59
2022/03/06 03:57:08;;;;;;;22.80;10.57;;;;;;;-2.52;71.20;98873.91;5092998;28;20246;-59
2022/03/06 03:59:35;;;;;;;24.83;11.07;;;;;;;-2.65;71.53;98872.75;5093452;28;20204;-59
2022/03/06 04:02:02;;;;;;;27.27;11.27;;;;;;;-2.69;71.13;98882.25;5093192;28;20270;-60
2022/03/06 04:04:30;;;;;;;26.83;14.00;;;;;;;-2.65;71.72;98883.00;5092112;28;20450;-60
2022/03/06 04:06:57;;;;;;;29.50;12.23;;;;;;;-2.74;72.35;98885.00;5093150;28;20187;-60
2022/03/06 04:09:24;;;;;;;23.43;11.23;;;;;;;-2.74;72.25;98889.28;5093296;28;20247;-60
2022/03/06 04:11:51;;;;;;;25.37;11.63;;;;;;;-2.84;72.53;98888.81;5092933;28;20212;-60
2022/03/06 04:14:18;;;;;;;27.27;11.90;;;;;;;-2.84;72.72;98887.06;5091669;28;20353;-60
2022/03/06 04:16:45;;;;;;;25.73;10.83;;;;;;;-2.88;72.83;98885.53;5074840;28;20293;-60
2022/03/06 04:19:12;;;;;;;26.00;11.93;;;;;;;-2.90;72.50;98894.97;5093040;28;20557;-60
2022/03/06 04:21:40;;;;;;;24.90;11.73;;;;;;;-2.91;72.72;98897.59;5092950;28;20662;-60
2022/03/06 04:24:08;;;;;;;25.87;11.87;;;;;;;-2.94;73.03;98895.16;5092220;28;20341;-60
2022/03/06 04:26:35;;;;;;;25.67;10.80;;;;;;;-2.95;73.75;98903.72;5092896;28;20191;-60
2022/03/06 04:29:03;;;;;;;24.80;10.73;;;;;;;-2.94;73.69;98907.94;5093018;28;20186;-60
2022/03/06 04:31:30;;;;;;;26.13;10.90;;;;;;;-2.99;74.19;98908.09;5097658;28;20206;-60
2022/03/06 04:33:57;;;;;;;23.23;10.77;;;;;;;-2.93;73.92;98904.50;5092942;28;20215;-60
2022/03/06 04:36:24;;;;;;;22.00;10.60;;;;;;;-3.01;73.51;98905.63;5092421;28;20186;-60
2022/03/06 04:38:52;;;;;;;25.33;11.27;;;;;;;-3.00;74.33;98906.44;5092721;28;20182;-60
2022/03/06 04:41:19;;;;;;;27.77;11.63;;;;;;;-3.07;74.57;98910.97;5092862;28;20316;-61
2022/03/06 04:43:46;;;;;;;25.07;10.57;;;;;;;-3.02;74.49;98909.06;5092341;28;20200;-60
2022/03/06 04:46:13;;;;;;;27.37;11.50;;;;;;;-3.12;74.40;98920.50;5092116;28;20197;-60
2022/03/06 04:48:40;;;;;;;25.70;11.27;;;;;;;-3.14;73.72;98925.66;5092439;28;20232;-60
2022/03/06 04:51:07;;;;;;;25.80;11.80;;;;;;;-3.16;74.61;98922.31;5092297;28;20187;-61
2022/03/06 04:53:34;;;;;;;30.63;11.50;;;;;;;-3.15;74.54;98913.78;5090619;28;20221;-61
2022/03/06 04:56:03;;;;;;;24.83;11.27;;;;;;;-3.18;74.49;98924.09;5092010;28;20216;-61
2022/03/06 04:58:30;;;;;;;28.57;12.47;;;;;;;-3.17;74.66;98928.31;5092632;28;20189;-60
2022/03/06 05:00:57;;;;;;;25.73;10.60;;;;;;;-3.07;74.37;98927.97;5092644;28;20193;-61
2022/03/06 05:03:23;;;;;;;25.93;11.47;;;;;;;-3.08;74.62;98923.78;5092975;28;20237;-61
2022/03/06 05:05:50;;;;;;;28.23;12.50;;;;;;;-2.94;73.92;98930.94;5092140;28;20186;-61
2022/03/06 05:08:17;;;;;;;28.67;12.17;;;;;;;-2.89;73.95;98931.59;5091209;28;20228;-61
2022/03/06 05:10:44;;;;;;;25.37;10.97;;;;;;;-2.86;73.78;98927.19;5092718;28;20176;-61
2022/03/06 05:13:12;;;;;;;27.47;12.03;;;;;;;-2.75;74.09;98924.22;5092169;28;20242;-60
2022/03/06 05:15:40;;;;;;;25.33;11.80;;;;;;;-2.71;74.03;98924.94;5092557;28;20185;-61
2022/03/06 05:18:07;;;;;;;27.50;12.13;;;;;;;-2.67;73.34;98923.91;5092141;28;20182;-61
2022/03/06 05:20:34;;;;;;;27.63;11.50;;;;;;;-2.64;72.98;98926.34;5098349;28;20190;-60
2022/03/06 05:23:00;;;;;;;29.07;11.50;;;;;;;-2.70;73.49;98931.72;5091747;28;20199;-60
2022/03/06 05:25:27;;;;;;;26.20;11.30;;;;;;;-2.65;73.75;98926.44;5091784;28;20197;-61
2022/03/06 05:27:54;;;;;;;25.27;11.63;;;;;;;-2.79;73.79;98930.34;5092331;28;20187;-61
2022/03/06 05:30:22;;;;;;;25.07;11.20;;;;;;;-2.80;75.15;98938.91;5092404;28;20603;-61
2022/03/06 05:32:49;;;;;;;24.87;11.30;;;;;;;-2.67;74.09;98941.81;5091818;28;20314;-60
2022/03/06 05:35:16;;;;;;;40.87;18.47;;;;;;;-2.58;73.08;98932.94;5091941;28;20194;-61
2022/03/06 05:37:43;;;;;;;29.87;13.00;;;;;;;-2.61;73.01;98933.91;5092041;28;20658;-61
2022/03/06 05:40:11;;;;;;;21.07;10.50;;;;;;;-2.68;72.97;98932.47;5092267;28;20183;-61
2022/03/06 05:42:38;;;;;;;25.17;11.40;;;;;;;-2.77;72.99;98938.78;5091675;28;20218;-61
2022/03/06 05:45:06;;;;;;;25.47;10.77;;;;;;;-2.85;73.88;98939.06;5091551;28;20186;-59
2022/03/06 05:47:34;;;;;;;28.73;12.07;;;;;;;-2.91;74.00;98944.41;5092050;28;20201;-60
2022/03/06 05:50:01;;;;;;;27.53;11.60;;;;;;;-2.97;74.39;98947.19;5092106;28;20231;-60
2022/03/06 05:52:27;;;;;;;24.63;11.27;;;;;;;-2.94;75.46;98936.84;5091579;28;20218;-60
2022/03/06 05:54:54;;;;;;;28.97;11.70;;;;;;;-2.87;75.65;98940.03;5091354;28;20209;-61
2022/03/06 05:57:21;;;;;;;30.17;11.80;;;;;;;-2.99;75.40;98946.41;5091783;28;20319;-61
2022/03/06 05:59:48;;;;;;;25.60;11.50;;;;;;;-2.92;75.50;98937.63;5091794;28;20185;-61
2022/03/06 06:02:14;;;;;;;28.50;12.17;;;;;;;-2.91;75.05;98941.84;5091445;28;20212;-61
2022/03/06 06:04:43;;;;;;;25.03;11.00;;;;;;;-2.94;75.19;98943.69;5091297;28;20251;-61
2022/03/06 06:07:11;;;;;;;24.33;11.07;;;;;;;-2.83;75.22;98939.84;5091718;28;20211;-61
2022/03/06 06:09:38;;;;;;;27.23;11.53;;;;;;;-2.75;74.90;98946.38;5091657;28;20186;-61
2022/03/06 06:12:06;;;;;;;27.50;12.17;;;;;;;-2.68;74.30;98947.81;5091393;28;20305;-61
2022/03/06 06:14:33;;;;;;;28.17;11.50;;;;;;;-2.63;73.88;98945.91;5091105;28;20671;-61
2022/03/06 06:17:00;;;;;;;28.73;12.00;;;;;;;-2.68;74.52;98942.69;5091494;28;20188;-61
2022/03/06 06:19:27;;;;;;;27.00;12.37;;;;;;;-2.67;75.21;98950.31;5091671;28;20670;-60
2022/03/06 06:21:55;;;;;;;24.20;11.37;;;;;;;-2.61;74.98;98956.06;5091138;28;20182;-60
2022/03/06 06:24:22;;;;;;;26.73;12.33;;;;;;;-2.65;74.65;98947.69;5089796;28;20193;-61
2022/03/06 06:26:51;;;;;;;29.57;12.73;;;;;;;-2.59;74.08;98955.13;5091273;28;20192;-61
2022/03/06 06:29:18;;;;;;;31.40;12.80;;;;;;;-2.58;74.83;98961.06;5091817;28;20197;-61
2022/03/06 06:31:45;;;;;;;30.40;11.93;;;;;;;-2.57;75.43;98953.34;5091089;28;20694;-61
2022/03/06 06:34:13;;;;;;;26.03;12.43;;;;;;;-2.59;75.51;98959.38;5090623;28;20190;-61
2022/03/06 06:36:40;;;;;;;25.53;11.30;;;;;;;-2.63;75.00;98961.25;5090967;28;20186;-61
2022/03/06 06:39:09;;;;;;;27.93;11.80;;;;;;;-2.58;74.61;98961.91;5090937;28;20189;-61
2022/03/06 06:41:37;;;;;;;27.97;12.23;;;;;;;-2.55;74.51;98955.81;5090890;28;20186;-61
2022/03/06 06:44:05;;;;;;;28.70;11.93;;;;;;;-2.48;74.98;98953.88;5090681;28;20258;-61
2022/03/06 06:46:32;;;;;;;26.40;12.17;;;;;;;-2.44;75.41;98957.97;5091154;28;20188;-61
2022/03/06 06:48:59;;;;;;;25.87;11.70;;;;;;;-2.47;75.09;98963.22;5091453;28;20191;-61
2022/03/06 06:51:27;;;;;;;28.87;12.73;;;;;;;-2.47;75.28;98960.66;5090940;28;20186;-61
2022/03/06 06:53:54;;;;;;;27.33;12.07;;;;;;;-2.36;75.68;98961.06;5090434;28;20280;-61
2022/03/06 06:56:22;;;;;;;30.03;12.23;;;;;;;-2.36;75.46;98966.19;5090620;28;20197;-61
2022/03/06 06:58:49;;;;;;;29.63;12.50;;;;;;;-2.28;74.48;98970.97;5090969;28;20186;-60
2022/03/06 07:01:16;;;;;;;26.13;12.20;;;;;;;-2.15;75.05;98973.88;5090853;28;20546;-61
2022/03/06 07:03:43;;;;;;;30.90;12.73;;;;;;;-2.06;74.30;98970.13;5090722;28;20701;-61
2022/03/06 07:06:10;;;;;;;30.17;11.40;;;;;;;-2.06;74.52;98973.50;5090381;28;20197;-60
2022/03/06 07:08:37;;;;;;;27.77;12.73;;;;;;;-1.84;73.86;98973.47;5090563;28;20190;-61
2022/03/06 07:11:04;;;;;;;27.47;12.40;;;;;;;-1.84;74.10;98975.19;5090608;28;20189;-61
2022/03/06 07:13:32;;;;;;;28.70;12.30;;;;;;;-1.89;74.41;98977.09;5090336;28;20326;-61
2022/03/06 07:15:59;;;;;;;26.77;13.10;;;;;;;-1.86;74.27;98982.09;5090136;28;20202;-61
2022/03/06 07:18:26;;;;;;;32.70;12.70;;;;;;;-1.79;73.74;98986.06;5090454;28;20182;-61
2022/03/06 07:20:53;;;;;;;29.07;11.97;;;;;;;-1.76;74.46;98985.94;5090625;28;20672;-61
2022/03/06 07:23:23;;;;;;;31.33;12.53;;;;;;;-1.72;74.42;98992.59;5090181;28;20210;-61
2022/03/06 07:25:50;;;;;;;27.70;11.90;;;;;;;-1.71;73.84;98990.88;5090025;28;20187;-61
2022/03/06 07:28:17;;;;;;;29.63;12.57;;;;;;;-1.59;74.29;98992.06;5090444;28;20182;-61
2022/03/06 07:30:45;;;;;;;28.70;12.97;;;;;;;-1.62;75.04;98993.03;5090569;28;20200;-60
2022/03/06 07:33:12;;;;;;;29.47;12.47;;;;;;;-1.58;74.66;98993.72;5090006;28;20218;-61
2022/03/06 07:35:39;;;;;;;30.80;13.77;;;;;;;-1.39;72.75;98992.06;5089921;28;20556;-61
2022/03/06 07:38:05;;;;;;;159.63;84.50;;;;;;;-0.75;68.09;99004.66;5090485;28;20186;-61
2022/03/06 07:40:32;;;;;;;35.33;16.90;;;;;;;-0.66;67.41;98998.25;5090349;28;20482;-61
2022/03/06 07:42:59;;;;;;;49.73;24.30;;;;;;;-0.35;66.03;98994.28;5089934;28;20216;-60
2022/03/06 07:45:26;;;;;;;29.43;14.37;;;;;;;-0.40;68.17;98997.03;5089900;28;20176;-61
2022/03/06 07:47:55;;;;;;;32.63;14.60;;;;;;;-0.37;67.39;99006.34;5090365;28;20194;-61
2022/03/06 07:50:22;;;;;;;38.97;17.93;;;;;;;-0.35;67.21;99009.66;5092447;28;20687;-61
2022/03/06 07:52:49;;;;;;;199.00;70.60;;;;;;;-0.16;64.94;99007.03;5093399;28;20214;-61
2022/03/06 07:55:16;;;;;;;36.33;17.47;;;;;;;-0.20;66.52;99006.38;5093518;28;20210;-62
2022/03/06 07:57:42;;;;;;;30.30;13.93;;;;;;;-0.16;65.99;99000.19;5092579;28;20225;-60
2022/03/06 08:00:12;;;;;;;30.20;13.83;;;;;;;-0.04;65.74;99010.78;5093701;28;20667;-60
2022/03/06 08:02:39;;;;;;;30.03;13.53;;;;;;;-0.01;64.53;99008.88;5093226;28;20206;-60
2022/03/06 08:05:09;;;;;;;26.10;13.50;;;;;;;0.11;64.90;99007.44;5093185;28;20183;-60
2022/03/06 08:07:36;;;;;;;31.57;14.20;;;;;;;0.09;65.64;99018.72;5093525;28;20178;-61
2022/03/06 08:10:06;;;;;;;28.73;13.50;;;;;;;0.12;66.55;99010.84;5093617;28;20209;-61
2022/03/06 08:12:33;;;;;;;28.47;14.53;;;;;;;0.22;65.04;99011.22;5093087;28;20686;-61
2022/03/06 08:15:00;;;;;;;27.70;14.20;;;;;;;0.51;62.14;99014.94;5093053;28;20441;-60
2022/03/06 08:17:27;;;;;;;30.77;13.47;;;;;;;0.71;62.66;99020.78;5093236;28;20237;-60
2022/03/06 08:19:54;;;;;;;30.50;13.70;;;;;;;0.88;61.12;99020.75;5093381;28;20651;-60
2022/03/06 08:22:23;;;;;;;26.73;12.73;;;;;;;0.96;62.56;99028.06;5093222;28;20272;-61
2022/03/06 08:24:50;;;;;;;31.00;14.17;;;;;;;1.15;61.30;99032.22;5092787;28;20265;-60
2022/03/06 08:27:17;;;;;;;38.20;20.33;;;;;;;1.42;59.49;99026.53;5093208;28;20198;-60
2022/03/06 08:29:44;;;;;;;32.53;15.77;;;;;;;1.57;59.91;99025.69;5093167;28;20190;-60
2022/03/06 08:32:11;;;;;;;30.80;13.50;;;;;;;1.73;58.09;99025.69;5092666;28;20207;-61
2022/03/06 08:34:37;;;;;;;28.53;13.87;;;;;;;1.82;58.54;99015.78;5092905;28;20184;-61
2022/03/06 08:37:05;;;;;;;33.13;15.33;;;;;;;1.93;56.94;99028.88;5092967;28;20185;-61
2022/03/06 08:39:33;;;;;;;26.50;12.30;;;;;;;1.92;57.38;99012.63;5092893;28;20192;-61
2022/03/06 08:42:01;;;;;;;27.87;13.43;;;;;;;2.06;56.02;99027.28;5093038;28;20234;-61
2022/03/06 08:44:27;;;;;;;28.97;14.13;;;;;;;2.21;55.85;99017.03;5092353;28;20194;-61
2022/03/06 08:46:54;;;;;;;27.53;13.77;;;;;;;2.30;56.18;99024.22;5092740;28;20245;-61
2022/03/06 08:49:21;;;;;;;27.73;13.47;;;;;;;2.30;56.28;99019.09;5092836;28;20213;-61
2022/03/06 08:51:48;;;;;;;27.73;13.80;;;;;;;2.44;54.64;99025.19;5092344;28;20193;-61
2022/03/06 08:54:15;;;;;;;28.30;14.77;;;;;;;2.54;54.36;99026.31;5091983;28;20215;-61
2022/03/06 08:56:43;;;;;;;28.07;13.67;;;;;;;2.71;53.71;99022.72;5092524;28;20183;-61
2022/03/06 08:59:10;;;;;;;26.87;13.60;;;;;;;2.86;53.35;99030.47;5092490;28;20189;-61
2022/03/06 09:01:36;;;;;;;30.75;16.13;;;;;;;2.95;53.93;99022.19;5091747;28;20433;-65
2022/03/06 09:04:03;;;;;;;27.23;13.73;;;;;;;3.09;52.99;99026.50;5091872;28;20566;-65
2022/03/06 09:06:30;;;;;;;30.10;15.83;;;;;;;3.06;52.41;99024.97;5092313;28;20186;-65
2022/03/06 09:08:57;;;;;;;39.43;27.10;;;;;;;3.17;52.16;99026.06;5091017;28;20243;-65
2022/03/06 09:11:24;;;;;;;26.50;13.40;;;;;;;3.32;51.11;99019.13;5092197;28;20182;-65
2022/03/06 09:13:52;;;;;;;27.73;13.60;;;;;;;3.33;51.55;99019.00;5091917;28;20218;-65
2022/03/06 09:16:19;;;;;;;30.17;13.70;;;;;;;3.38;51.40;99024.72;5092167;28;20198;-65
2022/03/06 09:18:47;;;;;;;25.70;13.27;;;;;;;3.50;50.75;99017.97;5092187;28;20189;-64
2022/03/06 09:21:14;;;;;;;28.07;13.27;;;;;;;3.59;50.58;99016.56;5092141;28;20186;-65
2022/03/06 09:23:41;;;;;;;27.83;12.43;;;;;;;3.64;49.02;99019.69;5091652;28;20210;-64
2022/03/06 09:26:08;;;;;;;27.00;12.60;;;;;;;3.76;50.85;99023.22;5090232;28;20190;-65
2022/03/06 09:28:35;;;;;;;25.47;13.17;;;;;;;3.94;51.63;99016.06;5091970;28;20660;-65
2022/03/06 09:31:03;;;;;;;26.17;13.10;;;;;;;4.11;50.51;99021.91;5091958;28;20182;-65
2022/03/06 09:33:30;;;;;;;26.70;12.17;;;;;;;4.37;48.24;99012.44;5091459;28;20202;-65
2022/03/06 09:35:57;;;;;;;24.70;12.60;;;;;;;4.54;48.05;99011.31;5091594;28;20192;-65
2022/03/06 09:38:24;;;;;;;24.13;11.97;;;;;;;4.80;46.47;99023.41;5091696;28;20182;-66
2022/03/06 09:40:55;;;;;;;89.03;37.80;;;;;;;4.69;45.12;99013.78;5091863;28;20598;-66
2022/03/06 09:43:22;;;;;;;30.13;16.30;;;;;;;4.83;45.68;99008.50;5091395;28;20206;-65
2022/03/06 09:45:49;;;;;;;22.63;12.43;;;;;;;5.06;45.48;99023.38;5091349;28;20193;-66
2022/03/06 09:48:18;;;;;;;23.37;11.90;;;;;;;5.10;43.96;99019.66;5091592;28;20208;-65
2022/03/06 09:50:45;;;;;;;22.03;12.10;;;;;;;4.78;43.81;99020.94;5091703;28;20182;-65
2022/03/06 09:53:12;;;;;;;23.97;12.03;;;;;;;5.18;43.72;99027.72;5090913;28;20251;-66
2022/03/06 09:55:39;;;;;;;22.80;11.77;;;;;;;4.95;43.95;99021.53;5091334;28;20209;-65
2022/03/06 09:58:06;;;;;;;22.23;11.47;;;;;;;5.14;42.86;99013.31;5091420;28;20188;-65
2022/03/06 10:00:32;;;;;;;20.50;8.30;;;;;;;4.77;42.96;99016.69;5091471;28;20182;-65
2022/03/06 10:03:01;;;;;;;21.07;11.07;;;;;;;4.93;42.75;99013.06;5089635;28;20679;-65
2022/03/06 10:05:35;;;;;;;23.03;11.90;;;;;;;4.49;42.71;99012.56;5090897;28;20280;-65
2022/03/06 10:08:23;;;;;;;21.23;10.23;;;;;;;4.71;42.50;99009.34;5091157;28;20700;-65
2022/03/06 10:10:53;;;;;;;23.43;10.80;;;;;;;4.80;42.45;99010.47;5091359;28;20210;-65
2022/03/06 10:13:26;;;;;;;17.37;10.37;;;;;;;4.97;42.08;99015.31;5089947;28;20214;-66
2022/03/06 10:16:01;;;;;;;18.73;11.37;;;;;;;4.95;41.16;99000.84;5090702;28;20186;-65
2022/03/06 10:18:30;;;;;;;22.53;10.20;;;;;;;4.95;41.45;99014.59;5091103;28;20193;-66
2022/03/06 10:21:04;;;;;;;25.93;10.93;;;;;;;5.20;41.57;99002.56;5091263;28;20213;-65
2022/03/06 10:23:31;;;;;;;19.07;8.67;;;;;;;4.91;40.34;99007.16;5090693;28;20197;-65
2022/03/06 10:26:02;;;;;;;19.67;9.50;;;;;;;4.82;40.45;99013.78;5090649;28;20206;-65
2022/03/06 10:28:29;;;;;;;22.57;10.37;;;;;;;4.94;40.70;99015.53;5090902;28;20186;-65
2022/03/06 10:31:04;;;;;;;23.80;11.37;;;;;;;5.22;41.05;99005.84;5089620;28;20612;-66
2022/03/06 10:33:31;;;;;;;22.15;11.65;;;;;;;5.15;40.71;99007.22;5088996;28;20440;-66
2022/03/06 10:36:02;;;;;;;20.97;11.33;;;;;;;5.28;40.85;99007.22;5090385;28;20208;-66
2022/03/06 10:38:31;;;;;;;19.10;9.47;;;;;;;5.16;39.54;99019.22;5091044;28;20198;-65
2022/03/06 10:41:00;;;;;;;24.50;12.73;;;;;;;4.98;41.64;99016.97;5090787;28;20226;-65
2022/03/06 10:43:28;;;;;;;21.67;10.57;;;;;;;4.96;39.95;99012.84;5090359;28;20205;-66
2022/03/06 10:46:07;;;;;;;22.90;11.10;;;;;;;5.24;39.72;99021.31;5090281;28;20178;-65
2022/03/06 10:48:34;;;;;;;22.80;11.17;;;;;;;5.27;39.87;99015.91;5089315;28;20604;-65
2022/03/06 10:51:01;;;;;;;19.67;10.30;;;;;;;5.31;40.19;99018.16;5090753;28;20197;-65
2022/03/06 10:53:29;;;;;;;21.83;11.77;;;;;;;5.35;39.61;99013.56;5090197;28;20210;-65
2022/03/06 10:56:06;;;;;;;20.73;10.67;;;;;;;5.24;39.23;99016.13;5090378;28;20190;-65
2022/03/06 10:58:34;;;;;;;22.23;11.43;;;;;;;5.49;40.37;99006.59;5090955;28;20182;-65
2022/03/06 11:01:03;;;;;;;22.53;11.67;;;;;;;5.44;40.12;99010.34;5090724;28;20201;-65
2022/03/06 11:03:35;;;;;;;21.48;11.25;;;;;;;5.04;40.07;99023.50;5090058;28;20440;-65
2022/03/06 11:06:04;;;;;;;21.40;11.67;;;;;;;5.31;39.79;99012.13;5089947;28;20618;-65
2022/03/06 11:08:32;;;;;;;22.57;11.33;;;;;;;5.58;39.73;99009.38;5090693;28;20186;-65
2022/03/06 11:10:59;;;;;;;19.80;11.00;;;;;;;5.59;40.37;99013.63;5090550;28;20186;-65
2022/03/06 11:13:28;;;;;;;18.87;10.43;;;;;;;5.69;39.25;99006.00;5090088;28;20293;-65
2022/03/06 11:15:56;;;;;;;21.17;10.03;;;;;;;5.54;38.15;99005.34;5090687;28;20222;-66
2022/03/06 11:18:25;;;;;;;19.30;9.70;;;;;;;5.16;39.84;98993.34;5090486;28;20191;-65
2022/03/06 11:20:54;;;;;;;20.33;10.40;;;;;;;5.40;40.86;99027.03;5090516;28;20201;-65
2022/03/06 11:23:30;;;;;;;21.60;11.37;;;;;;;5.14;40.51;99006.41;5091017;28;20202;-65